createdAt,value
2019-01-09T00:00:50.824Z,6.22
2019-01-09T00:01:31.803Z,8.28
2019-01-09T00:02:10.972Z,7.72
2019-01-09T00:02:50.510Z,6.58
2019-01-09T00:03:29.177Z,7.47
2019-01-09T00:04:07.816Z,7.25
2019-01-09T00:04:46.650Z,7.60
2019-01-09T00:05:28.443Z,7.65
2019-01-09T00:06:06.120Z,6.70
2019-01-09T00:06:45.135Z,6.45
2019-01-09T00:07:24.376Z,8.23
2019-01-09T00:08:03.734Z,7.90
2019-01-09T00:08:43.003Z,6.60
2019-01-09T00:09:22.550Z,6.20
2019-01-09T00:10:01.361Z,6.78
2019-01-09T00:10:40.102Z,5.80
2019-01-09T00:11:18.769Z,6.80
2019-01-09T00:11:57.562Z,6.58
2019-01-09T00:12:36.267Z,6.30
2019-01-09T00:13:15.331Z,5.90
2019-01-09T00:13:54.062Z,7.85
2019-01-09T00:14:33.523Z,7.65
2019-01-09T00:15:13.307Z,6.33
2019-01-09T00:15:52.398Z,6.80
2019-01-09T00:16:31.900Z,7.70
2019-01-09T00:17:10.782Z,6.47
2019-01-09T00:17:49.550Z,6.42
2019-01-09T00:18:28.278Z,6.33
2019-01-09T00:19:07.042Z,6.35
2019-01-09T00:19:46.325Z,7.30
2019-01-09T00:20:25.065Z,7.22
2019-01-09T00:21:03.801Z,6.40
2019-01-09T00:21:43.276Z,6.95
2019-01-09T00:22:22.253Z,6.37
2019-01-09T00:23:00.970Z,6.53
2019-01-09T00:23:39.813Z,6.47
2019-01-09T00:24:18.582Z,6.12
2019-01-09T00:24:57.736Z,5.70
2019-01-09T00:25:37.087Z,5.60
2019-01-09T00:26:15.939Z,6.67
2019-01-09T00:26:55.333Z,6.53
2019-01-09T00:27:34.099Z,6.58
2019-01-09T00:28:12.801Z,6.60
2019-01-09T00:28:51.582Z,6.97
2019-01-09T00:29:30.284Z,5.80
2019-01-09T00:30:09.555Z,6.03
2019-01-09T00:30:48.631Z,6.45
2019-01-09T00:31:27.763Z,6.08
2019-01-09T00:32:07.067Z,6.90
2019-01-09T00:32:46.490Z,6.15
2019-01-09T00:33:25.972Z,6.53
2019-01-09T00:34:05.229Z,6.12
2019-01-09T00:34:43.949Z,6.17
2019-01-09T00:35:22.583Z,5.43
2019-01-09T00:36:02.103Z,6.45
2019-01-09T00:36:40.836Z,6.30
2019-01-09T00:37:20.046Z,5.45
2019-01-09T00:37:59.234Z,6.37
2019-01-09T00:38:38.273Z,6.40
2019-01-09T00:39:17.580Z,6.10
2019-01-09T00:39:57.300Z,5.75
2019-01-09T00:40:36.520Z,5.70
2019-01-09T00:41:15.974Z,6.17
2019-01-09T00:41:55.407Z,5.12
2019-01-09T00:42:34.079Z,5.58
2019-01-09T00:43:12.850Z,4.80
2019-01-09T00:43:51.512Z,4.90
2019-01-09T00:44:30.218Z,4.72
2019-01-09T00:45:09.046Z,5.15
2019-01-09T00:45:48.332Z,4.75
2019-01-09T00:46:27.866Z,5.20
2019-01-09T00:47:06.896Z,5.37
2019-01-09T00:47:46.301Z,4.50
2019-01-09T00:48:25.409Z,5.17
2019-01-09T00:49:04.288Z,4.50
2019-01-09T00:49:43.562Z,5.08
2019-01-09T00:50:22.262Z,4.95
2019-01-09T00:51:00.989Z,4.70
2019-01-09T00:51:39.622Z,4.40
2019-01-09T00:52:18.380Z,4.28
2019-01-09T00:52:57.029Z,5.10
2019-01-09T00:53:35.758Z,5.17
2019-01-09T00:54:15.320Z,4.90
2019-01-09T00:54:54.767Z,5.28
2019-01-09T00:55:33.486Z,4.37
2019-01-09T00:56:12.390Z,4.65
2019-01-09T00:56:51.311Z,5.62
2019-01-09T00:57:30.492Z,4.35
2019-01-09T00:58:09.683Z,3.80
2019-01-09T00:58:48.906Z,4.67
2019-01-09T00:59:27.607Z,4.78
2019-01-09T01:00:06.339Z,4.47
2019-01-09T01:00:45.090Z,4.05
2019-01-09T01:01:23.801Z,4.67
2019-01-09T01:02:24.294Z,4.42
2019-01-09T01:03:26.692Z,4.33
2019-01-09T01:04:39.048Z,4.10
2019-01-09T01:06:01.588Z,4.67
2019-01-09T01:07:28.471Z,4.90
2019-01-09T01:08:49.601Z,4.00
2019-01-09T01:10:02.019Z,3.83
2019-01-09T01:11:22.481Z,4.20
2019-01-09T01:12:33.396Z,4.67
2019-01-09T01:13:46.314Z,4.15
2019-01-09T01:14:59.220Z,4.65
2019-01-09T01:16:12.747Z,4.58
2019-01-09T01:17:43.789Z,3.22
2019-01-09T01:19:00.938Z,4.42
2019-01-09T01:20:25.514Z,4.72
2019-01-09T01:21:26.162Z,4.17
2019-01-09T01:22:44.019Z,4.20
2019-01-09T01:24:06.894Z,4.37
2019-01-09T01:25:25.152Z,4.35
2019-01-09T01:26:25.699Z,3.75
2019-01-09T01:27:16.070Z,4.30
2019-01-09T01:28:33.997Z,3.95
2019-01-09T01:29:57.423Z,4.55
2019-01-09T01:31:19.104Z,4.47
2019-01-09T01:32:47.090Z,4.45
2019-01-09T01:33:40.263Z,4.55
2019-01-09T01:34:42.098Z,4.72
2019-01-09T01:35:36.631Z,4.45
2019-01-09T01:36:43.657Z,3.85
2019-01-09T01:37:55.420Z,4.55
2019-01-09T01:39:22.693Z,4.03
2019-01-09T01:40:36.137Z,4.78
2019-01-09T01:41:38.480Z,4.30
2019-01-09T01:42:56.660Z,4.30
2019-01-09T01:44:01.997Z,4.15
2019-01-09T01:45:26.220Z,4.10
2019-01-09T01:46:39.116Z,4.70
2019-01-09T01:47:44.552Z,4.47
2019-01-09T01:48:47.403Z,4.67
2019-01-09T01:50:21.256Z,4.60
2019-01-09T01:51:39.877Z,4.40
2019-01-09T01:52:53.882Z,5.05
2019-01-09T01:53:57.960Z,4.90
2019-01-09T01:55:11.821Z,4.50
2019-01-09T01:56:32.832Z,5.40
2019-01-09T01:57:28.379Z,5.10
2019-01-09T01:58:29.485Z,4.67
2019-01-09T01:59:25.622Z,5.35
2019-01-09T02:00:20.470Z,5.80
2019-01-09T02:01:53.427Z,4.80
2019-01-09T02:03:13.700Z,5.72
2019-01-09T02:04:19.855Z,5.70
2019-01-09T02:05:33.198Z,4.83
2019-01-09T02:06:41.358Z,5.95
2019-01-09T02:08:09.191Z,6.47
2019-01-09T02:09:16.989Z,5.50
2019-01-09T02:10:38.951Z,5.60
2019-01-09T02:11:52.749Z,6.20
2019-01-09T02:13:05.352Z,5.70
2019-01-09T02:14:15.075Z,5.77
2019-01-09T02:15:24.312Z,4.60
2019-01-09T02:16:41.647Z,4.70
2019-01-09T02:17:50.438Z,5.37
2019-01-09T02:18:39.263Z,4.95
2019-01-09T02:19:32.679Z,4.62
2019-01-09T02:20:38.961Z,5.00
2019-01-09T02:21:40.200Z,4.40
2019-01-09T02:22:59.026Z,4.95
2019-01-09T02:24:15.455Z,4.80
2019-01-09T02:25:14.883Z,4.42
2019-01-09T02:26:15.697Z,5.03
2019-01-09T02:27:45.750Z,4.33
2019-01-09T02:29:04.416Z,3.90
2019-01-09T02:30:26.094Z,4.05
2019-01-09T02:31:38.547Z,4.30
2019-01-09T02:32:42.217Z,4.10
2019-01-09T02:33:20.898Z,4.70
2019-01-09T02:33:59.791Z,4.50
2019-01-09T02:34:39.013Z,3.83
2019-01-09T02:35:18.138Z,4.08
2019-01-09T02:35:57.290Z,4.17
2019-01-09T02:36:36.599Z,4.58
2019-01-09T02:37:15.830Z,4.33
2019-01-09T02:37:55.236Z,4.55
2019-01-09T02:38:33.872Z,4.30
2019-01-09T02:39:12.715Z,4.05
2019-01-09T02:39:51.454Z,3.80
2019-01-09T02:40:30.185Z,4.17
2019-01-09T02:41:09.199Z,4.10
2019-01-09T02:41:47.845Z,4.37
2019-01-09T02:42:27.247Z,4.35
2019-01-09T02:43:06.511Z,3.90
2019-01-09T02:43:45.830Z,3.83
2019-01-09T02:44:32.209Z,3.72
2019-01-09T02:45:05.480Z,4.62
2019-01-09T02:45:44.909Z,3.58
2019-01-09T02:46:23.662Z,4.25
2019-01-09T02:47:02.945Z,4.65
2019-01-09T02:47:41.691Z,3.72
2019-01-09T02:48:20.352Z,3.95
2019-01-09T02:48:59.487Z,3.70
2019-01-09T02:49:38.494Z,4.35
2019-01-09T02:50:18.059Z,3.85
2019-01-09T02:50:57.125Z,3.67
2019-01-09T02:51:36.258Z,3.50
2019-01-09T02:52:14.913Z,4.15
2019-01-09T02:53:01.877Z,5.00
2019-01-09T02:53:40.663Z,4.10
2019-01-09T02:54:19.320Z,4.08
2019-01-09T02:54:58.775Z,3.67
2019-01-09T02:55:38.240Z,4.42
2019-01-09T02:56:16.976Z,3.97
2019-01-09T02:56:56.194Z,4.62
2019-01-09T02:57:34.865Z,3.90
2019-01-09T02:58:13.545Z,4.30
2019-01-09T02:58:52.240Z,4.33
2019-01-09T02:59:31.828Z,4.33
2019-01-09T03:00:12.656Z,4.00
2019-01-09T03:00:51.385Z,4.00
2019-01-09T03:01:30.539Z,3.62
2019-01-09T03:02:09.898Z,4.00
2019-01-09T03:02:49.402Z,3.55
2019-01-09T03:03:28.664Z,4.08
2019-01-09T03:04:08.109Z,4.60
2019-01-09T03:04:46.884Z,4.05
2019-01-09T03:05:25.610Z,3.90
2019-01-09T03:06:04.386Z,4.30
2019-01-09T03:06:43.026Z,3.63
2019-01-09T03:07:21.687Z,4.10
2019-01-09T03:08:00.722Z,4.13
2019-01-09T03:08:40.122Z,3.90
2019-01-09T03:09:19.369Z,3.83
2019-01-09T03:10:16.553Z,4.40
2019-01-09T03:10:55.281Z,4.62
2019-01-09T03:11:33.875Z,3.60
2019-01-09T03:12:12.591Z,4.35
2019-01-09T03:12:51.315Z,3.97
2019-01-09T03:13:30.513Z,3.87
2019-01-09T03:14:09.841Z,4.43
2019-01-09T03:14:49.074Z,4.10
2019-01-09T03:15:28.259Z,4.70
2019-01-09T03:16:06.935Z,4.12
2019-01-09T03:16:45.642Z,4.60
2019-01-09T03:17:24.809Z,4.40
2019-01-09T03:18:04.066Z,4.50
2019-01-09T03:18:42.893Z,4.50
2019-01-09T03:19:21.852Z,4.10
2019-01-09T03:20:01.103Z,4.65
2019-01-09T03:20:40.245Z,5.07
2019-01-09T03:21:19.313Z,4.08
2019-01-09T03:21:58.584Z,4.33
2019-01-09T03:22:37.822Z,4.30
2019-01-09T03:23:17.321Z,4.12
2019-01-09T03:23:56.620Z,5.20
2019-01-09T03:24:35.284Z,4.63
2019-01-09T03:25:13.972Z,4.37
2019-01-09T03:25:52.737Z,4.50
2019-01-09T03:26:31.880Z,4.67
2019-01-09T03:27:11.230Z,4.70
2019-01-09T03:27:50.517Z,4.57
2019-01-09T03:28:29.815Z,4.92
2019-01-09T03:29:09.254Z,4.83
2019-01-09T03:29:47.881Z,4.62
2019-01-09T03:30:26.792Z,4.65
2019-01-09T03:31:06.019Z,4.70
2019-01-09T03:31:44.659Z,4.70
2019-01-09T03:32:23.326Z,4.90
2019-01-09T03:33:02.404Z,5.00
2019-01-09T03:33:41.569Z,3.60
2019-01-09T03:34:20.278Z,4.80
2019-01-09T03:34:59.765Z,4.42
2019-01-09T03:35:38.387Z,4.90
2019-01-09T03:36:17.500Z,4.53
2019-01-09T03:36:56.590Z,4.67
2019-01-09T03:37:35.872Z,4.20
2019-01-09T03:38:14.907Z,5.55
2019-01-09T03:38:53.678Z,4.85
2019-01-09T03:39:33.047Z,4.60
2019-01-09T03:40:11.862Z,4.28
2019-01-09T03:40:50.990Z,4.30
2019-01-09T03:41:29.718Z,4.37
2019-01-09T03:42:08.531Z,5.33
2019-01-09T03:42:47.473Z,4.50
2019-01-09T03:43:26.283Z,4.40
2019-01-09T03:44:05.172Z,4.70
2019-01-09T03:44:44.261Z,4.20
2019-01-09T03:45:23.598Z,5.00
2019-01-09T03:46:02.795Z,4.90
2019-01-09T03:46:41.946Z,4.70
2019-01-09T03:47:20.720Z,5.10
2019-01-09T03:47:59.953Z,4.53
2019-01-09T03:48:38.780Z,5.50
2019-01-09T03:49:18.040Z,4.58
2019-01-09T03:49:57.388Z,4.70
2019-01-09T03:50:35.977Z,4.37
2019-01-09T03:51:14.842Z,4.85
2019-01-09T03:51:54.137Z,5.17
2019-01-09T03:52:33.684Z,4.58
2019-01-09T03:53:12.955Z,4.27
2019-01-09T03:53:52.173Z,4.53
2019-01-09T03:54:31.449Z,4.30
2019-01-09T03:55:10.944Z,5.08
2019-01-09T03:55:49.750Z,4.83
2019-01-09T03:56:28.565Z,4.47
2019-01-09T03:57:07.350Z,4.40
2019-01-09T03:57:46.142Z,4.50
2019-01-09T03:58:25.187Z,4.83
2019-01-09T03:59:04.496Z,4.60
2019-01-09T03:59:44.084Z,4.80
2019-01-09T04:00:23.531Z,4.22
2019-01-09T04:01:02.285Z,5.10
2019-01-09T04:01:41.899Z,4.83
2019-01-09T04:02:21.057Z,4.58
2019-01-09T04:03:00.354Z,3.73
2019-01-09T04:03:39.677Z,5.37
2019-01-09T04:04:18.405Z,4.50
2019-01-09T04:04:57.017Z,4.80
2019-01-09T04:05:35.893Z,4.93
2019-01-09T04:06:14.835Z,4.72
2019-01-09T04:06:54.012Z,4.45
2019-01-09T04:07:33.314Z,4.57
2019-01-09T04:08:12.676Z,3.90
2019-01-09T04:08:51.953Z,4.47
2019-01-09T04:09:30.693Z,4.20
2019-01-09T04:10:09.970Z,4.00
2019-01-09T04:10:48.995Z,4.70
2019-01-09T04:11:27.695Z,3.90
2019-01-09T04:12:06.711Z,4.67
2019-01-09T04:12:45.471Z,3.75
2019-01-09T04:13:24.263Z,4.42
2019-01-09T04:14:03.674Z,4.75
2019-01-09T04:14:42.408Z,4.17
2019-01-09T04:15:21.763Z,3.98
2019-01-09T04:16:00.451Z,5.25
2019-01-09T04:16:39.787Z,3.67
2019-01-09T04:17:19.278Z,5.15
2019-01-09T04:17:57.959Z,4.37
2019-01-09T04:18:37.020Z,4.20
2019-01-09T04:19:16.437Z,4.25
2019-01-09T04:19:55.727Z,4.65
2019-01-09T04:20:35.142Z,4.07
2019-01-09T04:21:13.957Z,4.00
2019-01-09T04:21:52.530Z,4.20
2019-01-09T04:22:31.235Z,4.03
2019-01-09T04:23:10.020Z,4.33
2019-01-09T04:23:48.882Z,4.03
2019-01-09T04:24:27.932Z,4.85
2019-01-09T04:25:06.942Z,3.72
2019-01-09T04:25:46.091Z,4.12
2019-01-09T04:26:25.287Z,4.58
2019-01-09T04:27:04.740Z,4.17
2019-01-09T04:27:44.130Z,4.08
2019-01-09T04:28:23.567Z,4.62
2019-01-09T04:29:02.303Z,4.90
2019-01-09T04:29:41.878Z,4.42
2019-01-09T04:30:20.604Z,4.00
2019-01-09T04:30:59.234Z,4.20
2019-01-09T04:31:38.272Z,4.20
2019-01-09T04:32:17.009Z,4.30
2019-01-09T04:32:56.340Z,3.37
2019-01-09T04:33:35.667Z,3.60
2019-01-09T04:34:15.411Z,4.00
2019-01-09T04:34:54.541Z,4.43
2019-01-09T04:35:34.048Z,3.50
2019-01-09T04:36:13.848Z,4.90
2019-01-09T04:36:53.071Z,4.13
2019-01-09T04:37:31.726Z,3.60
2019-01-09T04:38:10.458Z,4.03
2019-01-09T04:38:49.173Z,4.80
2019-01-09T04:39:28.284Z,3.98
2019-01-09T04:40:07.454Z,4.33
2019-01-09T04:40:47.723Z,4.10
2019-01-09T04:41:27.083Z,4.20
2019-01-09T04:42:06.414Z,4.33
2019-01-09T04:42:45.186Z,4.60
2019-01-09T04:43:24.442Z,3.87
2019-01-09T04:44:03.998Z,3.40
2019-01-09T04:44:42.967Z,4.13
2019-01-09T04:45:21.785Z,3.50
2019-01-09T04:46:00.386Z,4.00
2019-01-09T04:46:39.135Z,3.90
2019-01-09T04:47:18.171Z,4.07
2019-01-09T04:47:57.477Z,4.60
2019-01-09T04:48:36.900Z,4.10
2019-01-09T04:49:16.268Z,3.97
2019-01-09T04:49:55.496Z,4.47
2019-01-09T04:50:34.652Z,3.77
2019-01-09T04:51:14.067Z,3.57
2019-01-09T04:51:52.893Z,3.70
2019-01-09T04:52:31.525Z,4.20
2019-01-09T04:53:10.249Z,4.20
2019-01-09T04:53:49.007Z,3.90
2019-01-09T04:54:27.643Z,4.07
2019-01-09T04:55:06.951Z,4.17
2019-01-09T04:55:46.154Z,3.97
2019-01-09T04:56:25.468Z,4.17
2019-01-09T04:57:04.870Z,4.27
2019-01-09T04:57:44.192Z,3.60
2019-01-09T04:58:22.776Z,3.83
2019-01-09T04:59:01.460Z,3.70
2019-01-09T04:59:40.474Z,4.00
2019-01-09T05:00:19.843Z,3.73
2019-01-09T05:00:58.747Z,3.80
2019-01-09T05:01:38.285Z,3.83
2019-01-09T05:02:17.025Z,4.07
2019-01-09T05:02:56.301Z,4.30
2019-01-09T05:03:35.107Z,4.33
2019-01-09T05:04:14.032Z,4.20
2019-01-09T05:04:53.198Z,3.47
2019-01-09T05:05:31.895Z,3.97
2019-01-09T05:06:11.039Z,3.50
2019-01-09T05:06:50.115Z,4.17
2019-01-09T05:07:29.241Z,3.60
2019-01-09T05:08:08.649Z,3.57
2019-01-09T05:08:47.970Z,3.60
2019-01-09T05:09:26.491Z,3.53
2019-01-09T05:10:05.827Z,4.10
2019-01-09T05:10:44.524Z,3.60
2019-01-09T05:11:23.294Z,3.27
2019-01-09T05:12:02.629Z,3.13
2019-01-09T05:12:41.325Z,3.57
2019-01-09T05:13:20.390Z,4.10
2019-01-09T05:13:59.204Z,4.12
2019-01-09T05:14:38.421Z,3.73
2019-01-09T05:15:17.599Z,4.23
2019-01-09T05:15:56.893Z,4.13
2019-01-09T05:16:36.220Z,3.77
2019-01-09T05:17:15.673Z,4.37
2019-01-09T05:17:54.392Z,3.77
2019-01-09T05:18:33.076Z,3.30
2019-01-09T05:19:11.696Z,4.00
2019-01-09T05:19:51.055Z,3.60
2019-01-09T05:20:30.455Z,3.83
2019-01-09T05:21:09.973Z,4.37
2019-01-09T05:21:49.268Z,4.10
2019-01-09T05:22:28.408Z,4.57
2019-01-09T05:23:07.753Z,3.80
2019-01-09T05:23:46.912Z,4.00
2019-01-09T05:24:25.624Z,3.40
2019-01-09T05:25:04.830Z,3.83
2019-01-09T05:25:43.555Z,3.73
2019-01-09T05:26:22.625Z,4.07
2019-01-09T05:27:02.022Z,3.93
2019-01-09T05:27:40.736Z,3.30
2019-01-09T05:28:20.040Z,3.80
2019-01-09T05:28:59.202Z,4.30
2019-01-09T05:29:37.908Z,3.33
2019-01-09T05:30:16.657Z,3.30
2019-01-09T05:30:55.482Z,4.00
2019-01-09T05:31:34.137Z,3.20
2019-01-09T05:32:13.097Z,3.50
2019-01-09T05:32:52.444Z,3.33
2019-01-09T05:33:31.660Z,4.10
2019-01-09T05:34:10.418Z,4.43
2019-01-09T05:34:49.252Z,4.13
2019-01-09T05:35:27.951Z,3.60
2019-01-09T05:36:06.793Z,3.63
2019-01-09T05:36:45.512Z,3.60
2019-01-09T05:37:24.176Z,3.10
2019-01-09T05:38:03.210Z,3.70
2019-01-09T05:38:42.162Z,3.57
2019-01-09T05:39:21.522Z,4.13
2019-01-09T05:40:00.573Z,3.77
2019-01-09T05:40:40.092Z,3.50
2019-01-09T05:41:19.364Z,4.07
2019-01-09T05:41:58.872Z,4.67
2019-01-09T05:42:37.870Z,4.00
2019-01-09T05:43:16.619Z,3.73
2019-01-09T05:43:55.378Z,3.73
2019-01-09T05:44:34.357Z,3.40
2019-01-09T05:45:13.131Z,4.07
2019-01-09T05:45:52.260Z,3.40
2019-01-09T05:46:31.456Z,4.10
2019-01-09T05:47:10.943Z,3.57
2019-01-09T05:47:50.760Z,4.33
2019-01-09T05:48:30.068Z,3.90
2019-01-09T05:49:09.488Z,4.30
2019-01-09T05:49:48.808Z,3.30
2019-01-09T05:50:27.492Z,3.80
2019-01-09T05:51:06.189Z,3.23
2019-01-09T05:51:45.351Z,3.10
2019-01-09T05:52:24.430Z,3.30
2019-01-09T05:53:03.808Z,3.47
2019-01-09T05:53:42.970Z,3.50
2019-01-09T05:54:22.232Z,3.43
2019-01-09T05:55:01.944Z,3.73
2019-01-09T05:55:40.606Z,3.37
2019-01-09T05:56:19.925Z,3.40
2019-01-09T05:56:59.396Z,4.33
2019-01-09T05:57:38.030Z,3.43
2019-01-09T05:58:17.276Z,3.10
2019-01-09T05:58:56.186Z,3.73
2019-01-09T05:59:34.864Z,3.60
2019-01-09T06:00:14.347Z,3.02
2019-01-09T06:00:53.647Z,3.83
2019-01-09T06:01:32.977Z,3.80
2019-01-09T06:02:12.119Z,4.10
2019-01-09T06:02:51.513Z,3.40
2019-01-09T06:03:30.917Z,3.63
2019-01-09T06:04:10.346Z,3.50
2019-01-09T06:04:49.025Z,3.80
2019-01-09T06:05:27.669Z,3.97
2019-01-09T06:06:06.342Z,3.50
2019-01-09T06:06:45.191Z,4.00
2019-01-09T06:07:24.471Z,3.50
2019-01-09T06:08:03.171Z,3.63
2019-01-09T06:08:42.494Z,3.45
2019-01-09T06:09:21.821Z,4.03
2019-01-09T06:10:01.240Z,4.27
2019-01-09T06:10:40.775Z,3.30
2019-01-09T06:11:19.601Z,4.03
2019-01-09T06:11:58.735Z,3.33
2019-01-09T06:12:37.388Z,3.27
2019-01-09T06:13:16.189Z,3.57
2019-01-09T06:13:55.260Z,3.73
2019-01-09T06:14:34.674Z,3.70
2019-01-09T06:15:13.995Z,4.00
2019-01-09T06:15:53.130Z,3.40
2019-01-09T06:16:31.761Z,4.07
2019-01-09T06:17:10.994Z,3.80
2019-01-09T06:17:49.708Z,3.83
2019-01-09T06:18:29.052Z,3.40
2019-01-09T06:19:07.781Z,3.50
2019-01-09T06:19:46.612Z,3.53
2019-01-09T06:20:25.927Z,3.40
2019-01-09T06:21:05.577Z,3.40
2019-01-09T06:21:44.811Z,3.17
2019-01-09T06:22:24.425Z,3.60
2019-01-09T06:23:03.772Z,3.60
2019-01-09T06:23:42.505Z,3.20
2019-01-09T06:24:21.175Z,3.37
2019-01-09T06:25:00.220Z,3.63
2019-01-09T06:25:39.491Z,3.70
2019-01-09T06:26:18.076Z,3.67
2019-01-09T06:26:56.829Z,3.40
2019-01-09T06:27:35.954Z,3.50
2019-01-09T06:28:14.999Z,3.37
2019-01-09T06:28:54.197Z,3.87
2019-01-09T06:29:33.223Z,3.50
2019-01-09T06:30:12.680Z,3.20
2019-01-09T06:30:52.084Z,3.90
2019-01-09T06:31:30.808Z,3.50
2019-01-09T06:32:09.642Z,3.10
2019-01-09T06:32:48.295Z,3.50
2019-01-09T06:33:27.407Z,3.63
2019-01-09T06:34:06.704Z,3.67
2019-01-09T06:34:45.888Z,3.87
2019-01-09T06:35:25.418Z,4.00
2019-01-09T06:36:04.799Z,3.70
2019-01-09T06:36:43.856Z,3.60
2019-01-09T06:37:27.482Z,3.30
2019-01-09T06:38:03.307Z,3.10
2019-01-09T06:38:42.790Z,3.47
2019-01-09T06:39:21.609Z,3.80
2019-01-09T06:40:00.265Z,3.13
2019-01-09T06:40:39.038Z,3.50
2019-01-09T06:41:17.788Z,3.47
2019-01-09T06:41:56.988Z,3.40
2019-01-09T06:42:36.111Z,3.77
2019-01-09T06:43:15.458Z,3.30
2019-01-09T06:43:54.682Z,3.60
2019-01-09T06:44:34.129Z,3.60
2019-01-09T06:45:12.788Z,3.53
2019-01-09T06:45:51.501Z,3.27
2019-01-09T06:46:30.245Z,3.60
2019-01-09T06:47:08.946Z,3.57
2019-01-09T06:47:47.652Z,3.50
2019-01-09T06:48:46.035Z,3.43
2019-01-09T06:49:25.358Z,3.97
2019-01-09T06:50:04.722Z,3.80
2019-01-09T06:50:43.978Z,4.20
2019-01-09T06:51:22.693Z,3.40
2019-01-09T06:52:01.519Z,3.73
2019-01-09T06:52:40.262Z,3.40
2019-01-09T06:53:19.032Z,3.50
2019-01-09T06:53:57.788Z,3.27
2019-01-09T06:54:37.174Z,3.87
2019-01-09T06:55:16.328Z,3.50
2019-01-09T06:55:55.749Z,3.33
2019-01-09T06:56:35.107Z,3.47
2019-01-09T06:57:13.841Z,3.07
2019-01-09T06:57:52.893Z,3.67
2019-01-09T06:58:32.356Z,4.13
2019-01-09T06:59:11.021Z,3.40
2019-01-09T06:59:50.238Z,3.67
2019-01-09T07:00:29.407Z,3.70
2019-01-09T07:01:08.823Z,3.47
2019-01-09T07:01:47.941Z,3.23
2019-01-09T07:02:27.285Z,3.17
2019-01-09T07:03:06.648Z,3.60
2019-01-09T07:03:46.047Z,4.27
2019-01-09T07:04:25.562Z,3.03
2019-01-09T07:05:04.179Z,3.80
2019-01-09T07:05:43.561Z,4.10
2019-01-09T07:06:22.268Z,3.53
2019-01-09T07:07:01.157Z,3.70
2019-01-09T07:07:40.281Z,4.03
2019-01-09T07:08:19.021Z,3.53
2019-01-09T07:08:58.236Z,3.27
2019-01-09T07:09:36.892Z,4.07
2019-01-09T07:10:15.851Z,3.40
2019-01-09T07:10:55.077Z,3.70
2019-01-09T07:11:33.791Z,3.90
2019-01-09T07:12:12.402Z,3.87
2019-01-09T07:12:51.154Z,4.10
2019-01-09T07:13:30.393Z,3.77
2019-01-09T07:14:09.784Z,3.90
2019-01-09T07:14:48.549Z,3.83
2019-01-09T07:15:27.567Z,3.50
2019-01-09T07:16:06.323Z,3.83
2019-01-09T07:16:44.976Z,3.40
2019-01-09T07:17:24.246Z,3.77
2019-01-09T07:18:02.887Z,3.57
2019-01-09T07:18:41.903Z,3.13
2019-01-09T07:19:20.939Z,3.40
2019-01-09T07:20:00.454Z,3.70
2019-01-09T07:20:39.802Z,2.80
2019-01-09T07:21:18.944Z,3.77
2019-01-09T07:21:58.106Z,3.70
2019-01-09T07:22:37.379Z,3.80
2019-01-09T07:23:16.888Z,3.43
2019-01-09T07:23:55.871Z,3.50
2019-01-09T07:24:34.616Z,4.30
2019-01-09T07:25:13.846Z,3.50
2019-01-09T07:25:52.506Z,3.60
2019-01-09T07:26:31.719Z,3.30
2019-01-09T07:27:11.141Z,3.50
2019-01-09T07:27:50.305Z,4.20
2019-01-09T07:28:29.770Z,3.23
2019-01-09T07:29:09.004Z,3.33
2019-01-09T07:29:48.274Z,4.00
2019-01-09T07:30:27.543Z,3.70
2019-01-09T07:31:07.002Z,3.93
2019-01-09T07:31:46.486Z,3.57
2019-01-09T07:32:25.202Z,3.77
2019-01-09T07:33:03.850Z,3.73
2019-01-09T07:33:42.569Z,3.67
2019-01-09T07:34:21.989Z,3.30
2019-01-09T07:35:01.170Z,3.67
2019-01-09T07:35:39.733Z,3.40
2019-01-09T07:36:19.084Z,3.73
2019-01-09T07:36:58.406Z,3.87
2019-01-09T07:37:44.920Z,3.40
2019-01-09T07:38:18.351Z,3.87
2019-01-09T07:38:57.671Z,3.23
2019-01-09T07:39:36.334Z,3.53
2019-01-09T07:40:15.034Z,3.77
2019-01-09T07:40:53.772Z,4.07
2019-01-09T07:41:32.746Z,3.63
2019-01-09T07:42:11.913Z,3.33
2019-01-09T07:42:50.946Z,4.00
2019-01-09T07:43:30.355Z,3.37
2019-01-09T07:44:09.661Z,3.70
2019-01-09T07:44:49.267Z,3.83
2019-01-09T07:45:28.530Z,3.60
2019-01-09T07:46:07.907Z,3.90
2019-01-09T07:46:46.584Z,3.50
2019-01-09T07:47:25.337Z,3.20
2019-01-09T07:48:04.406Z,4.10
2019-01-09T07:48:43.079Z,3.13
2019-01-09T07:49:22.548Z,3.70
2019-01-09T07:50:01.195Z,3.10
2019-01-09T07:50:39.970Z,3.77
2019-01-09T07:51:18.693Z,4.00
2019-01-09T07:51:58.121Z,3.13
2019-01-09T07:52:37.456Z,3.17
2019-01-09T07:53:16.116Z,3.67
2019-01-09T07:53:56.350Z,4.07
2019-01-09T07:54:34.847Z,3.27
2019-01-09T07:55:14.030Z,2.93
2019-01-09T07:55:53.242Z,3.50
2019-01-09T07:56:31.951Z,3.77
2019-01-09T07:57:11.107Z,3.73
2019-01-09T07:57:49.739Z,3.60
2019-01-09T07:58:28.404Z,3.90
2019-01-09T07:59:07.162Z,3.83
2019-01-09T07:59:45.810Z,3.70
2019-01-09T08:00:25.027Z,3.70
2019-01-09T08:01:03.663Z,3.40
2019-01-09T08:01:43.020Z,3.67
2019-01-09T08:02:22.432Z,3.43
2019-01-09T08:03:01.446Z,3.43
2019-01-09T08:03:40.374Z,3.77
2019-01-09T08:04:19.149Z,3.37
2019-01-09T08:04:57.814Z,3.93
2019-01-09T08:05:36.446Z,3.87
2019-01-09T08:06:15.186Z,3.73
2019-01-09T08:06:53.843Z,3.90
2019-01-09T08:07:32.993Z,3.70
2019-01-09T08:08:12.462Z,3.57
2019-01-09T08:08:51.733Z,3.90
2019-01-09T08:09:31.103Z,3.43
2019-01-09T08:10:10.930Z,4.20
2019-01-09T08:10:49.668Z,3.17
2019-01-09T08:11:29.021Z,3.67
2019-01-09T08:12:07.734Z,4.33
2019-01-09T08:12:46.417Z,3.97
2019-01-09T08:13:25.382Z,4.30
2019-01-09T08:14:04.481Z,3.80
2019-01-09T08:14:43.166Z,3.93
2019-01-09T08:15:22.316Z,3.80
2019-01-09T08:16:01.039Z,4.07
2019-01-09T08:16:39.696Z,3.40
2019-01-09T08:17:18.473Z,3.70
2019-01-09T08:17:57.167Z,3.63
2019-01-09T08:18:36.238Z,3.43
2019-01-09T08:19:15.535Z,3.50
2019-01-09T08:19:54.970Z,3.70
2019-01-09T08:20:33.780Z,3.50
2019-01-09T08:21:12.511Z,3.70
2019-01-09T08:21:51.251Z,3.43
2019-01-09T08:22:30.137Z,3.87
2019-01-09T08:23:08.847Z,3.63
2019-01-09T08:23:47.553Z,3.50
2019-01-09T08:24:26.370Z,4.03
2019-01-09T08:25:06.052Z,3.30
2019-01-09T08:25:45.607Z,3.67
2019-01-09T08:26:24.767Z,4.00
2019-01-09T08:27:04.354Z,3.60
2019-01-09T08:27:43.126Z,3.17
2019-01-09T08:28:22.577Z,4.40
2019-01-09T08:29:01.288Z,3.73
2019-01-09T08:29:40.061Z,3.60
2019-01-09T08:30:18.673Z,3.77
2019-01-09T08:30:57.484Z,3.60
2019-01-09T08:31:36.866Z,3.80
2019-01-09T08:32:15.666Z,3.83
2019-01-09T08:32:55.123Z,3.73
2019-01-09T08:33:34.259Z,4.07
2019-01-09T08:34:13.708Z,4.00
2019-01-09T08:34:52.903Z,3.97
2019-01-09T08:35:32.465Z,3.97
2019-01-09T08:36:11.187Z,4.20
2019-01-09T08:36:49.889Z,3.77
2019-01-09T08:37:28.589Z,3.60
2019-01-09T08:38:07.331Z,3.83
2019-01-09T08:38:46.859Z,3.80
2019-01-09T08:39:26.205Z,3.83
2019-01-09T08:40:05.168Z,3.60
2019-01-09T08:40:44.893Z,3.77
2019-01-09T08:41:24.164Z,3.80
2019-01-09T08:42:03.658Z,3.87
2019-01-09T08:42:42.386Z,3.70
2019-01-09T08:43:21.049Z,3.80
2019-01-09T08:44:00.066Z,3.50
2019-01-09T08:44:38.941Z,3.83
2019-01-09T08:45:17.638Z,4.30
2019-01-09T08:45:56.336Z,3.93
2019-01-09T08:46:34.972Z,4.00
2019-01-09T08:47:14.374Z,3.63
2019-01-09T08:47:53.725Z,4.10
2019-01-09T08:48:32.604Z,3.63
2019-01-09T08:49:11.752Z,4.03
2019-01-09T08:49:50.475Z,3.90
2019-01-09T08:50:29.282Z,3.80
2019-01-09T08:51:08.654Z,3.90
2019-01-09T08:51:48.064Z,3.17
2019-01-09T08:52:27.663Z,4.10
2019-01-09T08:53:07.101Z,4.10
2019-01-09T08:53:46.196Z,3.80
2019-01-09T08:54:25.456Z,3.63
2019-01-09T08:55:04.144Z,4.13
2019-01-09T08:55:42.837Z,4.03
2019-01-09T08:56:21.541Z,4.77
2019-01-09T08:57:00.221Z,4.03
2019-01-09T08:57:39.367Z,4.00
2019-01-09T08:58:18.726Z,3.50
2019-01-09T08:58:57.381Z,3.93
2019-01-09T08:59:36.837Z,4.20
2019-01-09T09:00:16.167Z,4.13
2019-01-09T09:00:54.931Z,4.27
2019-01-09T09:01:33.691Z,4.73
2019-01-09T09:02:12.622Z,3.80
2019-01-09T09:02:51.987Z,3.90
2019-01-09T09:03:30.737Z,4.30
2019-01-09T09:04:09.607Z,4.23
2019-01-09T09:04:49.001Z,4.10
2019-01-09T09:05:28.412Z,3.80
2019-01-09T09:06:07.698Z,3.80
2019-01-09T09:06:47.069Z,3.60
2019-01-09T09:07:26.406Z,4.70
2019-01-09T09:08:12.275Z,3.70
2019-01-09T09:08:49.571Z,4.10
2019-01-09T09:09:28.157Z,3.80
2019-01-09T09:10:07.187Z,4.17
2019-01-09T09:10:45.873Z,3.70
2019-01-09T09:11:25.056Z,3.63
2019-01-09T09:12:03.720Z,3.33
2019-01-09T09:12:42.966Z,3.70
2019-01-09T09:13:49.076Z,3.70
2019-01-09T09:14:28.356Z,4.40
2019-01-09T09:15:09.110Z,4.20
2019-01-09T09:15:47.792Z,4.17
2019-01-09T09:16:26.482Z,3.43
2019-01-09T09:17:05.171Z,4.20
2019-01-09T09:17:43.878Z,4.27
2019-01-09T09:18:23.127Z,4.17
2019-01-09T09:19:02.778Z,4.20
2019-01-09T09:19:41.910Z,4.47
2019-01-09T09:20:20.906Z,4.03
2019-01-09T09:21:00.122Z,3.93
2019-01-09T09:21:39.618Z,4.70
2019-01-09T09:22:18.934Z,4.63
2019-01-09T09:22:58.273Z,3.93
2019-01-09T09:23:37.588Z,3.73